createdAt,value
2022-07-30T00:00:24.941Z,10.77
2022-07-30T00:02:52.239Z,13.73
2022-07-30T00:05:19.148Z,13.53
2022-07-30T00:07:45.896Z,14.27
2022-07-30T00:10:25.427Z,12.90
2022-07-30T00:12:52.243Z,14.40
2022-07-30T00:15:19.257Z,8.93
2022-07-30T00:17:46.641Z,12.00
2022-07-30T00:20:14.694Z,12.63
2022-07-30T00:22:41.579Z,10.10
2022-07-30T00:25:08.767Z,10.67
2022-07-30T00:27:35.885Z,12.43
2022-07-30T00:30:04.646Z,17.83
2022-07-30T00:32:31.618Z,13.83
2022-07-30T00:34:58.360Z,12.90
2022-07-30T00:37:25.366Z,13.13
2022-07-30T00:39:52.085Z,12.20
2022-07-30T00:42:25.556Z,13.40
2022-07-30T00:44:55.322Z,19.60
2022-07-30T00:47:22.104Z,15.17
2022-07-30T00:49:48.889Z,16.83
2022-07-30T00:52:15.655Z,13.73
2022-07-30T00:54:42.764Z,15.73
2022-07-30T00:57:09.508Z,15.23
2022-07-30T00:59:36.315Z,15.83
2022-07-30T01:02:03.530Z,12.10
2022-07-30T01:04:31.103Z,12.83
2022-07-30T01:06:58.208Z,16.93
2022-07-30T01:09:25.252Z,11.77
2022-07-30T01:11:52.209Z,13.93
2022-07-30T01:14:19.420Z,13.83
2022-07-30T01:17:03.591Z,11.83
2022-07-30T01:21:01.178Z,15.70
2022-07-30T01:24:22.476Z,15.17
2022-07-30T01:26:52.132Z,18.20
2022-07-30T01:29:19.531Z,11.90
2022-07-30T01:31:48.188Z,19.07
2022-07-30T01:34:16.227Z,13.93
2022-07-30T01:36:46.030Z,15.60
2022-07-30T01:39:14.960Z,16.60
2022-07-30T01:41:43.087Z,11.40
2022-07-30T01:44:13.541Z,16.50
2022-07-30T01:46:41.369Z,20.40
2022-07-30T01:49:10.851Z,16.97
2022-07-30T01:51:39.503Z,17.50
2022-07-30T01:54:11.125Z,15.97
2022-07-30T01:56:39.366Z,37.23
2022-07-30T01:59:08.036Z,20.37
2022-07-30T02:01:34.901Z,17.83
2022-07-30T02:04:03.496Z,21.40
2022-07-30T02:06:36.262Z,17.30
2022-07-30T02:09:10.697Z,21.70
2022-07-30T02:12:02.562Z,28.13
2022-07-30T02:14:39.180Z,23.20
2022-07-30T02:17:09.012Z,24.10
2022-07-30T02:19:51.319Z,31.30
2022-07-30T02:22:20.994Z,20.53
2022-07-30T02:24:52.391Z,20.40
2022-07-30T02:27:26.460Z,21.27
2022-07-30T02:29:56.318Z,26.60
2022-07-30T02:32:26.883Z,30.03
2022-07-30T02:35:00.137Z,24.80
2022-07-30T02:37:43.227Z,27.50
2022-07-30T02:40:16.491Z,30.80
2022-07-30T02:42:47.171Z,22.60
2022-07-30T02:45:18.000Z,27.30
2022-07-30T02:47:52.610Z,24.23
2022-07-30T02:50:21.382Z,27.93
2022-07-30T02:52:50.161Z,23.13
2022-07-30T02:55:18.438Z,22.27
2022-07-30T02:57:46.928Z,24.27
2022-07-30T03:00:14.547Z,26.00
2022-07-30T03:02:43.888Z,28.13
2022-07-30T03:05:14.197Z,28.80
2022-07-30T03:07:43.042Z,23.83
2022-07-30T03:10:12.049Z,25.23
2022-07-30T03:12:41.545Z,20.00
2022-07-30T03:15:09.385Z,21.17
2022-07-30T03:17:40.429Z,20.07
2022-07-30T03:20:14.418Z,22.20
2022-07-30T03:22:48.603Z,27.20
2022-07-30T03:25:19.848Z,24.80
2022-07-30T03:27:47.612Z,23.40
2022-07-30T03:30:15.080Z,23.17
2022-07-30T03:32:43.061Z,25.70
2022-07-30T03:35:17.449Z,33.73
2022-07-30T03:37:47.775Z,29.67
2022-07-30T03:40:15.546Z,29.27
2022-07-30T03:42:42.716Z,28.67
2022-07-30T03:45:10.849Z,35.00
2022-07-30T03:47:41.215Z,32.80
2022-07-30T03:50:09.462Z,32.37
2022-07-30T03:52:41.536Z,31.07
2022-07-30T03:55:11.229Z,33.67
2022-07-30T03:57:38.501Z,38.07
2022-07-30T04:00:14.996Z,40.67
2022-07-30T04:02:45.843Z,34.30
2022-07-30T04:05:13.999Z,29.80
2022-07-30T04:07:45.326Z,26.30
2022-07-30T04:10:13.512Z,27.27
2022-07-30T04:12:40.427Z,27.83
2022-07-30T04:16:05.740Z,30.70
2022-07-30T04:18:02.071Z,22.37
2022-07-30T04:20:34.519Z,29.53
2022-07-30T04:23:02.676Z,28.47
2022-07-30T04:25:30.648Z,27.27
2022-07-30T04:28:03.327Z,37.80
2022-07-30T04:30:34.983Z,45.93
2022-07-30T04:33:04.032Z,48.33
2022-07-30T04:35:51.455Z,55.57
2022-07-30T04:38:20.368Z,42.00
2022-07-30T04:40:47.602Z,43.03
2022-07-30T04:43:15.340Z,49.70
2022-07-30T04:45:42.611Z,56.30
2022-07-30T04:48:09.829Z,53.03
2022-07-30T04:50:40.853Z,50.13
2022-07-30T04:53:08.293Z,52.47
2022-07-30T04:55:38.570Z,45.37
2022-07-30T04:58:07.387Z,58.00
2022-07-30T05:00:40.486Z,45.37
2022-07-30T05:03:11.871Z,53.57
2022-07-30T05:05:40.242Z,44.87
2022-07-30T05:08:12.344Z,48.53
2022-07-30T05:10:39.161Z,50.77
2022-07-30T05:13:12.256Z,54.57
2022-07-30T05:15:41.036Z,43.30
2022-07-30T05:18:09.138Z,43.43
2022-07-30T05:20:36.394Z,40.03
2022-07-30T05:23:03.592Z,42.00
2022-07-30T05:25:30.720Z,39.90
2022-07-30T05:27:58.221Z,42.43
2022-07-30T05:30:27.794Z,41.70
2022-07-30T05:32:56.021Z,36.50
2022-07-30T05:35:22.969Z,41.50
2022-07-30T05:37:49.911Z,46.60
2022-07-30T05:40:16.753Z,37.10
2022-07-30T05:42:44.030Z,50.17
2022-07-30T05:45:11.363Z,49.80
2022-07-30T05:47:38.489Z,50.07
2022-07-30T05:50:05.842Z,45.73
2022-07-30T05:52:33.700Z,44.03
2022-07-30T05:55:00.916Z,42.53
2022-07-30T05:57:28.230Z,42.77
2022-07-30T05:59:55.006Z,43.27
2022-07-30T06:02:24.391Z,40.77
2022-07-30T06:04:52.259Z,37.93
2022-07-30T06:07:19.447Z,46.23
2022-07-30T06:09:46.618Z,48.13
2022-07-30T06:12:13.963Z,37.10
2022-07-30T06:14:41.154Z,42.07
2022-07-30T06:17:08.244Z,47.63
2022-07-30T06:19:35.370Z,46.63
2022-07-30T06:22:06.919Z,36.43
2022-07-30T06:24:34.794Z,38.20
2022-07-30T06:27:02.259Z,37.23
2022-07-30T06:29:29.571Z,47.00
2022-07-30T06:31:56.800Z,35.73
2022-07-30T06:34:24.051Z,38.53
2022-07-30T06:36:51.230Z,39.80
2022-07-30T06:39:53.589Z,37.03
2022-07-30T06:42:05.419Z,32.23
2022-07-30T06:44:35.140Z,33.10
2022-07-30T06:47:07.202Z,33.97
2022-07-30T06:49:35.947Z,30.43
2022-07-30T06:52:03.223Z,25.17
2022-07-30T06:54:30.303Z,27.40
2022-07-30T06:56:57.592Z,26.03
2022-07-30T06:59:24.980Z,25.83
2022-07-30T07:01:54.225Z,24.23
2022-07-30T07:04:21.906Z,24.60
2022-07-30T07:06:48.725Z,25.00
2022-07-30T07:09:15.679Z,27.90
2022-07-30T07:11:42.568Z,21.00
2022-07-30T07:14:09.959Z,26.60
2022-07-30T07:16:36.956Z,20.53
2022-07-30T07:19:06.434Z,25.27
2022-07-30T07:21:33.601Z,18.40
2022-07-30T07:24:03.258Z,22.23
2022-07-30T07:26:32.060Z,16.70
2022-07-30T07:29:03.381Z,21.63
2022-07-30T07:32:05.641Z,14.73
2022-07-30T07:34:19.046Z,25.40
2022-07-30T07:36:48.290Z,15.93
2022-07-30T07:39:15.409Z,15.40
2022-07-30T07:41:48.506Z,18.20
2022-07-30T07:44:16.459Z,14.23
2022-07-30T07:46:43.772Z,15.67
2022-07-30T07:49:11.315Z,15.80
2022-07-30T07:51:48.160Z,17.10
2022-07-30T07:54:23.841Z,18.33
2022-07-30T07:56:53.160Z,16.67
2022-07-30T07:59:20.341Z,14.90
2022-07-30T08:01:47.393Z,13.17
2022-07-30T08:04:17.136Z,18.87
2022-07-30T08:06:44.205Z,15.87
2022-07-30T08:09:11.329Z,17.67
2022-07-30T08:11:38.495Z,12.70
2022-07-30T08:14:05.696Z,10.63
2022-07-30T08:16:33.055Z,15.40
2022-07-30T08:19:00.403Z,12.07
2022-07-30T08:21:30.060Z,14.10
2022-07-30T08:23:57.813Z,13.87
2022-07-30T08:26:28.102Z,9.87
2022-07-30T08:28:55.085Z,10.90
2022-07-30T08:31:24.125Z,12.10
2022-07-30T08:33:51.250Z,16.47
2022-07-30T08:36:19.724Z,14.17
2022-07-30T08:38:53.582Z,12.50
2022-07-30T08:41:22.044Z,13.87
2022-07-30T08:43:51.459Z,12.97
2022-07-30T08:46:27.428Z,11.93
2022-07-30T08:48:56.324Z,8.43
2022-07-30T08:51:24.645Z,7.97
2022-07-30T08:53:51.888Z,9.73
2022-07-30T08:56:18.938Z,9.37
2022-07-30T08:58:46.229Z,14.07
2022-07-30T09:01:15.865Z,12.30
2022-07-30T09:03:43.914Z,8.20
2022-07-30T09:06:14.938Z,8.27
2022-07-30T09:08:42.729Z,7.53
2022-07-30T09:11:09.875Z,8.77
2022-07-30T09:13:40.721Z,7.90
2022-07-30T09:16:18.335Z,6.37
2022-07-30T09:18:45.212Z,31.07
2022-07-30T09:21:23.428Z,8.73
2022-07-30T09:24:02.152Z,7.60
2022-07-30T09:26:33.359Z,10.30
2022-07-30T09:29:17.899Z,11.50
2022-07-30T09:31:57.797Z,5.87
2022-07-30T09:34:32.703Z,8.87
2022-07-30T09:37:19.033Z,12.43
2022-07-30T09:39:59.255Z,4.90
2022-07-30T09:42:29.070Z,5.03
2022-07-30T09:45:07.893Z,10.23
2022-07-30T09:47:41.603Z,10.10
2022-07-30T09:50:11.094Z,10.10
2022-07-30T09:55:32.386Z,5.50
2022-07-30T09:58:03.717Z,6.77
2022-07-30T10:00:33.883Z,4.70
2022-07-30T10:03:21.528Z,8.57
2022-07-30T10:06:02.990Z,5.67
2022-07-30T10:08:48.037Z,7.67
2022-07-30T10:11:17.147Z,6.00
2022-07-30T10:13:57.928Z,5.30
2022-07-30T10:16:29.597Z,4.47
2022-07-30T10:19:00.470Z,6.20
2022-07-30T10:21:28.638Z,4.93
2022-07-30T10:24:00.003Z,4.60
2022-07-30T10:26:28.803Z,4.07
2022-07-30T10:28:56.949Z,6.67
2022-07-30T10:31:49.243Z,6.30
2022-07-30T10:34:16.492Z,8.07
2022-07-30T10:36:49.987Z,8.67
2022-07-30T10:39:24.548Z,8.00
2022-07-30T10:42:40.847Z,130.70
2022-07-30T10:45:29.574Z,7.70
2022-07-30T10:47:57.966Z,4.07
2022-07-30T10:50:29.702Z,7.67
2022-07-30T10:53:01.487Z,6.43
2022-07-30T10:55:38.913Z,4.63
2022-07-30T10:58:15.531Z,5.03
2022-07-30T11:00:51.909Z,4.00
2022-07-30T11:03:41.409Z,3.87
2022-07-30T11:06:24.361Z,10.27
2022-07-30T11:08:52.304Z,9.27
2022-07-30T11:12:02.328Z,5.40
2022-07-30T11:14:25.210Z,7.37
2022-07-30T11:17:19.036Z,6.50
2022-07-30T11:20:16.300Z,5.50
2022-07-30T11:22:50.874Z,6.57
2022-07-30T11:25:50.612Z,8.40
2022-07-30T11:28:49.558Z,4.60
2022-07-30T11:31:58.801Z,4.77
2022-07-30T11:38:22.431Z,9.03
2022-07-30T11:41:03.333Z,5.27
2022-07-30T11:43:46.228Z,5.60
2022-07-30T11:46:28.781Z,10.93
2022-07-30T11:49:05.229Z,7.57
2022-07-30T11:51:43.677Z,4.20
2022-07-30T11:54:12.757Z,7.43
2022-07-30T11:57:03.862Z,8.43
2022-07-30T12:03:30.482Z,5.67
2022-07-30T12:06:24.109Z,6.50
2022-07-30T12:09:00.518Z,8.73
2022-07-30T12:14:37.907Z,3.70
2022-07-30T12:19:55.595Z,2.53
2022-07-30T12:22:25.316Z,4.43
2022-07-30T12:24:52.469Z,10.33
2022-07-30T12:27:38.954Z,6.50
2022-07-30T12:30:59.462Z,4.13
2022-07-30T12:33:51.008Z,8.03
2022-07-30T12:36:44.699Z,3.93
2022-07-30T12:39:24.992Z,6.30
2022-07-30T12:41:59.002Z,5.33
2022-07-30T12:44:40.396Z,4.60
2022-07-30T12:47:31.485Z,3.43
2022-07-30T12:50:08.170Z,2.80
2022-07-30T12:52:42.179Z,3.17
2022-07-30T12:55:13.219Z,6.23
2022-07-30T12:58:07.928Z,4.90
2022-07-30T13:00:44.691Z,2.83
2022-07-30T13:03:28.958Z,4.73
2022-07-30T13:05:56.959Z,3.17
2022-07-30T13:08:47.700Z,6.80
2022-07-30T13:11:15.473Z,4.33
2022-07-30T13:13:49.129Z,8.13
2022-07-30T13:16:17.486Z,4.27
2022-07-30T13:18:44.329Z,5.23
2022-07-30T13:21:11.587Z,9.30
2022-07-30T13:23:47.802Z,4.10
2022-07-30T13:26:36.150Z,5.97
2022-07-30T13:29:04.606Z,7.50
2022-07-30T13:31:42.281Z,5.30
2022-07-30T13:34:12.005Z,4.93
2022-07-30T13:36:39.309Z,3.87
2022-07-30T13:39:06.226Z,3.97
2022-07-30T13:41:34.592Z,8.43
2022-07-30T13:44:01.438Z,3.03
2022-07-30T13:46:29.868Z,8.60
2022-07-30T13:48:57.046Z,8.33
2022-07-30T13:51:24.193Z,3.43
2022-07-30T13:53:51.321Z,8.40
2022-07-30T13:56:19.828Z,3.80
2022-07-30T13:58:49.850Z,4.50
2022-07-30T14:01:17.160Z,3.80
2022-07-30T14:03:49.954Z,8.23
2022-07-30T14:06:19.206Z,4.27
2022-07-30T14:08:48.598Z,2.47
2022-07-30T14:11:17.367Z,5.63
2022-07-30T14:13:44.474Z,2.93
2022-07-30T14:16:35.411Z,6.17
2022-07-30T14:18:58.752Z,3.27
2022-07-30T14:21:27.157Z,4.20
2022-07-30T14:23:55.148Z,2.90
2022-07-30T14:26:22.155Z,2.53
2022-07-30T14:28:51.181Z,2.90
2022-07-30T14:34:13.877Z,4.33
2022-07-30T14:36:51.947Z,3.53
2022-07-30T14:39:28.898Z,3.30
2022-07-30T14:42:06.879Z,3.90
2022-07-30T14:44:37.065Z,2.50
2022-07-30T14:47:06.333Z,2.57
2022-07-30T14:49:34.608Z,2.73
2022-07-30T14:52:01.663Z,2.60
2022-07-30T14:54:31.968Z,2.20
2022-07-30T14:57:01.498Z,2.87
2022-07-30T14:59:39.216Z,4.90
2022-07-30T15:02:10.664Z,3.67
2022-07-30T15:04:49.320Z,8.03
2022-07-30T15:07:19.040Z,2.30
2022-07-30T15:09:49.705Z,7.40
2022-07-30T15:12:23.555Z,10.43
2022-07-30T15:14:57.108Z,2.43
2022-07-30T15:17:28.414Z,2.10
2022-07-30T15:20:05.195Z,2.67
2022-07-30T15:22:36.914Z,5.97
2022-07-30T15:26:00.859Z,3.30
2022-07-30T15:28:20.853Z,4.77
2022-07-30T15:30:56.729Z,5.40
2022-07-30T15:33:37.192Z,2.53
2022-07-30T15:36:09.809Z,3.13
2022-07-30T15:38:52.746Z,3.80
2022-07-30T15:41:55.482Z,4.30
2022-07-30T15:44:48.135Z,4.43
2022-07-30T15:47:29.042Z,4.60
2022-07-30T15:50:01.883Z,7.00
2022-07-30T15:52:39.210Z,3.47
2022-07-30T15:55:13.088Z,10.40
2022-07-30T15:57:56.385Z,6.93
2022-07-30T16:00:38.304Z,9.33
2022-07-30T16:10:34.319Z,5.13
2022-07-30T16:16:14.170Z,6.53
2022-07-30T16:18:51.677Z,7.03
2022-07-30T16:24:37.682Z,4.50
2022-07-30T16:27:28.206Z,5.37
2022-07-30T16:30:23.553Z,5.03
2022-07-30T16:33:11.254Z,5.13
2022-07-30T16:36:22.890Z,3.23
2022-07-30T16:39:17.051Z,6.90
2022-07-30T16:45:15.784Z,3.83
2022-07-30T16:48:00.380Z,3.83
2022-07-30T16:50:58.646Z,5.20
2022-07-30T16:53:40.374Z,4.30
2022-07-30T16:56:25.998Z,7.60
2022-07-30T16:59:04.150Z,6.33
2022-07-30T17:01:58.086Z,6.70
2022-07-30T17:04:40.580Z,8.13
2022-07-30T17:07:14.411Z,6.97
2022-07-30T17:10:05.321Z,5.97
2022-07-30T17:12:51.044Z,9.83
2022-07-30T17:15:46.920Z,4.10
2022-07-30T17:18:34.467Z,4.47
2022-07-30T17:21:10.709Z,9.70
2022-07-30T17:24:02.073Z,6.47
2022-07-30T17:26:49.012Z,3.40
2022-07-30T17:29:23.138Z,4.30
2022-07-30T17:32:11.234Z,3.60
2022-07-30T17:34:55.786Z,3.40
2022-07-30T17:40:32.970Z,15.73
2022-07-30T17:43:29.702Z,6.83
2022-07-30T17:46:06.734Z,7.17
2022-07-30T17:48:43.053Z,3.00
2022-07-30T17:51:31.240Z,5.63
2022-07-30T17:54:15.864Z,10.50
2022-07-30T17:56:51.752Z,9.83
2022-07-30T17:59:30.430Z,7.00
2022-07-30T18:02:08.678Z,4.00
2022-07-30T18:04:56.543Z,9.70
2022-07-30T18:07:35.182Z,8.00
2022-07-30T18:10:20.231Z,4.40
2022-07-30T18:13:25.901Z,3.87
2022-07-30T18:16:10.717Z,4.77
2022-07-30T18:18:48.851Z,3.30
2022-07-30T18:21:43.327Z,5.67
2022-07-30T18:27:22.842Z,6.97
2022-07-30T18:30:31.075Z,2.97
2022-07-30T18:33:10.796Z,6.47
2022-07-30T18:35:59.030Z,3.47
2022-07-30T18:39:10.439Z,3.40
2022-07-30T18:41:48.446Z,8.93
2022-07-30T18:44:40.331Z,4.10
2022-07-30T18:47:22.962Z,5.43
2022-07-30T18:50:07.775Z,3.27
2022-07-30T18:53:37.936Z,9.57
2022-07-30T18:55:48.006Z,9.43
2022-07-30T18:59:19.915Z,6.60
2022-07-30T19:05:29.819Z,14.40
2022-07-30T19:08:13.548Z,13.10
2022-07-30T19:11:00.644Z,9.80
2022-07-30T19:13:40.935Z,10.90
2022-07-30T19:16:14.621Z,12.53
2022-07-30T19:21:41.627Z,5.10
2022-07-30T19:24:27.085Z,4.57
2022-07-30T19:30:41.064Z,7.00
2022-07-30T19:34:07.779Z,8.67
2022-07-30T19:37:08.353Z,7.60
2022-07-30T19:40:08.328Z,5.40
2022-07-30T19:43:12.737Z,10.30
2022-07-30T19:46:20.452Z,6.13
2022-07-30T19:49:06.902Z,9.20
2022-07-30T19:52:23.681Z,5.67
2022-07-30T20:03:05.504Z,5.20
2022-07-30T20:09:42.687Z,3.10
2022-07-30T20:12:28.622Z,5.80
2022-07-30T20:21:57.006Z,7.03
2022-07-30T20:24:39.563Z,12.10
2022-07-30T20:27:37.309Z,4.83
2022-07-30T20:30:31.667Z,4.20
2022-07-30T20:33:35.986Z,8.03
2022-07-30T20:36:14.155Z,3.73
2022-07-30T20:39:05.667Z,3.30
2022-07-30T20:41:41.199Z,10.10
2022-07-30T20:44:23.898Z,5.90
2022-07-30T20:46:57.857Z,4.90
2022-07-30T20:49:50.336Z,4.47
2022-07-30T20:55:27.229Z,3.67
2022-07-30T20:58:16.324Z,8.70
2022-07-30T21:01:04.769Z,9.83
2022-07-30T21:03:48.102Z,5.90
2022-07-30T21:06:30.594Z,5.47
2022-07-30T21:09:51.947Z,4.87
2022-07-30T21:12:38.333Z,6.47
2022-07-30T21:15:45.593Z,3.17
2022-07-30T21:18:30.933Z,4.27
2022-07-30T21:21:06.617Z,3.80
2022-07-30T21:23:53.893Z,7.80
2022-07-30T21:26:26.382Z,6.20
2022-07-30T21:32:28.998Z,7.33
2022-07-30T21:34:57.581Z,4.10
2022-07-30T21:37:26.971Z,7.07
2022-07-30T21:40:05.197Z,4.13
2022-07-30T21:42:32.032Z,3.90
2022-07-30T21:44:59.138Z,4.03
2022-07-30T21:47:25.958Z,5.77
2022-07-30T21:49:52.883Z,15.60
2022-07-30T21:52:20.038Z,4.60
2022-07-30T21:54:49.759Z,7.10
2022-07-30T22:00:14.488Z,4.53
2022-07-30T22:02:52.730Z,5.10
2022-07-30T22:05:21.698Z,5.70
2022-07-30T22:07:50.663Z,6.23
2022-07-30T22:10:21.438Z,6.77
2022-07-30T22:12:48.646Z,4.37
2022-07-30T22:15:15.511Z,9.90
2022-07-30T22:18:00.568Z,6.77
2022-07-30T22:20:29.192Z,4.53
2022-07-30T22:22:58.264Z,7.10
2022-07-30T22:25:44.073Z,10.03
2022-07-30T22:28:13.479Z,5.10
2022-07-30T22:30:40.461Z,7.67
2022-07-30T22:33:13.681Z,7.97
2022-07-30T22:35:46.446Z,7.80
2022-07-30T22:38:14.753Z,5.33
2022-07-30T22:40:42.761Z,17.13
2022-07-30T22:43:12.666Z,7.43
2022-07-30T22:45:48.034Z,8.53
2022-07-30T22:48:16.760Z,4.10
2022-07-30T22:50:43.502Z,8.20
2022-07-30T22:53:16.637Z,11.67
2022-07-30T22:55:58.619Z,6.33
2022-07-30T22:58:26.130Z,4.83
2022-07-30T23:00:53.437Z,7.90
2022-07-30T23:03:21.128Z,6.47
2022-07-30T23:05:55.100Z,6.27
2022-07-30T23:08:30.226Z,5.20
2022-07-30T23:10:59.372Z,4.20
2022-07-30T23:12:27.882Z,9.37
2022-07-30T23:13:27.184Z,4.90
2022-07-30T23:15:54.230Z,6.63
2022-07-30T23:18:21.194Z,4.83
2022-07-30T23:20:48.214Z,5.67
2022-07-30T23:23:15.102Z,3.97
2022-07-30T23:25:41.868Z,5.50
2022-07-30T23:28:08.577Z,5.43
2022-07-30T23:30:36.005Z,8.30
2022-07-30T23:33:02.807Z,10.20
2022-07-30T23:35:30.364Z,5.97
2022-07-30T23:37:57.406Z,8.60
2022-07-30T23:40:24.366Z,6.73
2022-07-30T23:42:52.166Z,6.03
2022-07-30T23:45:19.420Z,4.37
2022-07-30T23:48:00.145Z,6.33
2022-07-30T23:50:33.187Z,5.47
2022-07-30T23:53:01.109Z,7.47
2022-07-30T23:55:28.751Z,6.70
2022-07-30T23:57:56.419Z,4.50
